createdAt,value
2018-04-17T00:01:07.144Z,101448.14
2018-04-17T00:03:33.019Z,101452.55
2018-04-17T00:05:59.925Z,101449.02
2018-04-17T00:08:25.793Z,101450.13
2018-04-17T00:10:51.636Z,101452.29
2018-04-17T00:13:17.494Z,101454.84
2018-04-17T00:15:43.371Z,101464.02
2018-04-17T00:18:09.227Z,101460.59
2018-04-17T00:20:35.074Z,101464.50
2018-04-17T00:23:00.950Z,101470.66
2018-04-17T00:25:26.797Z,101477.16
2018-04-17T00:27:52.637Z,101473.55
2018-04-17T00:30:18.520Z,101472.38
2018-04-17T00:32:44.366Z,101471.61
2018-04-17T00:35:10.232Z,101472.54
2018-04-17T00:37:36.083Z,101474.88
2018-04-17T00:40:01.923Z,101479.16
2018-04-17T00:42:27.802Z,101482.25
2018-04-17T00:44:53.657Z,101491.11
2018-04-17T00:47:19.501Z,101484.98
2018-04-17T00:49:45.347Z,101493.33
2018-04-17T00:52:11.207Z,101495.47
2018-04-17T00:54:37.062Z,101507.25
2018-04-17T00:57:02.894Z,101505.47
2018-04-17T00:59:28.742Z,101512.50
2018-04-17T01:01:54.593Z,101514.73
2018-04-17T01:04:20.464Z,101523.41
2018-04-17T01:06:46.322Z,101523.39
2018-04-17T01:09:12.170Z,101529.59
2018-04-17T01:11:38.005Z,101528.75
2018-04-17T01:14:03.854Z,101531.47
2018-04-17T01:16:29.699Z,101535.31
2018-04-17T01:18:55.579Z,101533.25
2018-04-17T01:21:21.411Z,101535.69
2018-04-17T01:23:47.251Z,101543.20
2018-04-17T01:26:13.123Z,101536.28
2018-04-17T01:28:38.974Z,101535.98
2018-04-17T01:31:04.820Z,101540.89
2018-04-17T01:33:30.707Z,101539.71
2018-04-17T01:35:56.537Z,101541.16
2018-04-17T01:38:22.375Z,101549.43
2018-04-17T01:40:48.207Z,101542.11
2018-04-17T01:43:14.041Z,101547.89
2018-04-17T01:45:39.916Z,101545.73
2018-04-17T01:48:05.760Z,101549.34
2018-04-17T01:50:31.624Z,101545.54
2018-04-17T01:52:57.489Z,101552.07
2018-04-17T01:55:23.316Z,101546.00
2018-04-17T01:57:49.154Z,101552.16
2018-04-17T02:00:14.983Z,101551.26
2018-04-17T02:02:40.837Z,101550.88
2018-04-17T02:05:06.687Z,101554.43
2018-04-17T02:07:32.540Z,101557.08
2018-04-17T02:09:58.387Z,101562.89
2018-04-17T02:12:24.225Z,101556.48
2018-04-17T02:14:50.065Z,101557.45
2018-04-17T02:17:15.908Z,101558.37
2018-04-17T02:19:41.772Z,101563.21
2018-04-17T02:22:07.615Z,101562.70
2018-04-17T02:24:33.464Z,101561.81
2018-04-17T02:26:59.337Z,101558.88
2018-04-17T02:29:25.201Z,101558.84
2018-04-17T02:31:51.046Z,101558.84
2018-04-17T02:34:16.908Z,101562.43
2018-04-17T02:36:42.771Z,101564.59
2018-04-17T02:39:08.612Z,101569.23
2018-04-17T02:41:34.501Z,101563.01
2018-04-17T02:44:00.360Z,101561.04
2018-04-17T02:46:26.242Z,101562.00
2018-04-17T02:48:52.084Z,101567.30
2018-04-17T02:51:17.945Z,101562.56
2018-04-17T02:53:43.808Z,101564.77
2018-04-17T02:56:10.528Z,101568.70
2018-04-17T02:58:36.411Z,101570.42
2018-04-17T03:01:02.269Z,101579.70
2018-04-17T03:03:28.158Z,101576.24
2018-04-17T03:05:54.004Z,101579.36
2018-04-17T03:08:19.867Z,101580.75
2018-04-17T03:10:45.710Z,101585.98
2018-04-17T03:13:11.582Z,101586.42
2018-04-17T03:15:37.429Z,101588.20
2018-04-17T03:18:03.283Z,101591.30
2018-04-17T03:20:29.156Z,101600.88
2018-04-17T03:22:55.009Z,101601.77
2018-04-17T03:25:20.892Z,101603.51
2018-04-17T03:27:47.960Z,101614.42
2018-04-17T03:30:13.828Z,101606.58
2018-04-17T03:32:39.671Z,101614.47
2018-04-17T03:35:05.537Z,101612.33
2018-04-17T03:37:31.377Z,101612.31
2018-04-17T03:39:57.244Z,101611.47
2018-04-17T03:42:23.095Z,101617.56
2018-04-17T03:44:48.947Z,101610.62
2018-04-17T03:47:14.806Z,101609.33
2018-04-17T03:49:40.651Z,101610.64
2018-04-17T03:52:06.515Z,101619.77
2018-04-17T03:54:32.372Z,101623.27
2018-04-17T03:56:58.243Z,101630.23
2018-04-17T03:59:24.091Z,101629.80
2018-04-17T04:01:49.962Z,101637.67
2018-04-17T04:04:15.827Z,101636.82
2018-04-17T04:06:41.659Z,101641.58
2018-04-17T04:09:07.530Z,101639.84
2018-04-17T04:11:33.371Z,101645.09
2018-04-17T04:13:59.259Z,101650.30
2018-04-17T04:16:37.360Z,101654.27
2018-04-17T04:19:15.511Z,101659.48
2018-04-17T04:21:53.744Z,101652.97
2018-04-17T04:24:31.936Z,101661.70
2018-04-17T04:26:57.777Z,101670.84
2018-04-17T04:29:23.638Z,101669.53
2018-04-17T04:31:49.470Z,101671.72
2018-04-17T04:34:16.204Z,101675.19
2018-04-17T04:36:42.036Z,101683.48
2018-04-17T04:39:07.906Z,101680.87
2018-04-17T04:41:33.756Z,101679.98
2018-04-17T04:43:59.597Z,101684.34
2018-04-17T04:46:25.429Z,101688.70
2018-04-17T04:48:51.258Z,101698.72
2018-04-17T04:51:17.118Z,101701.77
2018-04-17T04:53:42.965Z,101708.31
2018-04-17T04:56:08.826Z,101702.20
2018-04-17T04:58:34.688Z,101701.33
2018-04-17T05:01:00.532Z,101702.61
2018-04-17T05:03:26.395Z,101709.14
2018-04-17T05:05:52.258Z,101716.98
2018-04-17T05:08:18.144Z,101720.44
2018-04-17T05:10:44.003Z,101721.30
2018-04-17T05:13:09.865Z,101723.89
2018-04-17T05:15:35.721Z,101726.05
2018-04-17T05:18:01.570Z,101736.49
2018-04-17T05:20:27.456Z,101738.24
2018-04-17T05:22:53.290Z,101740.39
2018-04-17T05:25:19.156Z,101746.48
2018-04-17T05:27:45.033Z,101759.52
2018-04-17T05:30:10.892Z,101754.25
2018-04-17T05:32:36.732Z,101770.40
2018-04-17T05:35:02.633Z,101774.29
2018-04-17T05:37:28.483Z,101775.14
2018-04-17T05:39:54.510Z,101787.34
2018-04-17T05:42:20.361Z,101780.30
2018-04-17T05:44:46.224Z,101788.15
2018-04-17T05:47:12.090Z,101780.66
2018-04-17T05:49:37.947Z,101783.24
2018-04-17T05:52:03.793Z,101785.82
2018-04-17T05:54:29.639Z,101794.50
2018-04-17T05:56:55.497Z,101797.55
2018-04-17T05:59:21.359Z,101800.58
2018-04-17T06:01:48.039Z,101801.38
2018-04-17T06:04:13.871Z,101801.73
2018-04-17T06:06:39.724Z,101796.78
2018-04-17T06:09:05.589Z,101797.64
2018-04-17T06:11:31.421Z,101797.11
2018-04-17T06:13:57.293Z,101794.48
2018-04-17T06:16:23.150Z,101797.96
2018-04-17T06:18:48.994Z,101805.41
2018-04-17T06:21:14.843Z,101806.23
2018-04-17T06:23:40.695Z,101818.84
2018-04-17T06:26:06.589Z,101816.16
2018-04-17T06:28:32.449Z,101821.30
2018-04-17T06:30:58.317Z,101827.45
2018-04-17T06:33:24.153Z,101830.02
2018-04-17T06:35:50.081Z,101834.65
2018-04-17T06:38:15.930Z,101834.68
2018-04-17T06:40:41.784Z,101835.61
2018-04-17T06:43:07.648Z,101834.21
2018-04-17T06:45:33.502Z,101831.17
2018-04-17T06:47:59.360Z,101834.59
2018-04-17T06:50:25.432Z,101842.86
2018-04-17T06:52:51.296Z,101845.91
2018-04-17T06:55:17.157Z,101844.09
2018-04-17T06:57:43.023Z,101853.60
2018-04-17T07:00:08.898Z,101857.87
2018-04-17T07:02:34.751Z,101852.27
2018-04-17T07:05:00.614Z,101855.89
2018-04-17T07:07:26.475Z,101851.54
2018-04-17T07:09:52.327Z,101852.23
2018-04-17T07:12:18.197Z,101842.72
2018-04-17T07:14:44.068Z,101847.37
2018-04-17T07:17:09.915Z,101847.67
2018-04-17T07:19:35.779Z,101854.61
2018-04-17T07:22:01.674Z,101855.80
2018-04-17T07:24:27.553Z,101851.79
2018-04-17T07:26:53.407Z,101854.56
2018-04-17T07:29:19.262Z,101854.28
2018-04-17T07:31:45.146Z,101862.52
2018-04-17T07:34:11.014Z,101868.07
2018-04-17T07:36:36.855Z,101863.47
2018-04-17T07:39:02.751Z,101865.30
2018-04-17T07:41:28.609Z,101865.77
2018-04-17T07:43:54.488Z,101866.95
2018-04-17T07:46:20.357Z,101866.20
2018-04-17T07:48:49.171Z,101875.07
2018-04-17T07:51:15.410Z,101881.09
2018-04-17T07:53:41.246Z,101880.13
2018-04-17T07:56:07.158Z,101883.00
2018-04-17T07:58:32.993Z,101883.53
2018-04-17T08:00:58.854Z,101885.40
2018-04-17T08:03:24.709Z,101886.88
2018-04-17T08:08:43.553Z,101891.23
2018-04-17T08:11:09.395Z,101899.56
2018-04-17T08:13:35.251Z,101898.03
2018-04-17T08:16:01.104Z,101899.96
2018-04-17T08:18:26.945Z,101902.13
2018-04-17T08:20:52.804Z,101898.65
2018-04-17T08:23:18.670Z,101896.59
2018-04-17T08:25:44.534Z,101902.19
2018-04-17T08:28:10.399Z,101899.23
2018-04-17T08:30:36.263Z,101899.47
2018-04-17T08:33:02.114Z,101904.66
2018-04-17T08:35:27.985Z,101899.72
2018-04-17T08:37:53.831Z,101906.81
2018-04-17T08:40:19.715Z,101904.03
2018-04-17T08:42:45.610Z,101902.55
2018-04-17T08:45:11.485Z,101898.78
2018-04-17T08:47:37.352Z,101903.07
2018-04-17T08:50:03.224Z,101898.91
2018-04-17T08:52:29.084Z,101905.31
2018-04-17T08:54:54.938Z,101904.11
2018-04-17T08:57:20.777Z,101904.87
2018-04-17T08:59:46.598Z,101897.89
2018-04-17T09:02:12.452Z,101897.56
2018-04-17T09:04:38.291Z,101900.73
2018-04-17T09:07:04.163Z,101905.03
2018-04-17T09:09:30.019Z,101906.77
2018-04-17T09:11:55.950Z,101908.25
2018-04-17T09:14:21.777Z,101906.91
2018-04-17T09:16:47.628Z,101903.30
2018-04-17T09:19:13.493Z,101903.88
2018-04-17T09:21:39.334Z,101904.75
2018-04-17T09:24:05.186Z,101902.52
2018-04-17T09:26:31.033Z,101898.94
2018-04-17T09:28:56.885Z,101902.39
2018-04-17T09:31:22.744Z,101894.81
2018-04-17T09:33:48.993Z,101896.31
2018-04-17T09:36:14.821Z,101894.22
2018-04-17T09:38:40.691Z,101894.49
2018-04-17T09:41:06.543Z,101902.05
2018-04-17T09:43:32.378Z,101898.82
2018-04-17T09:45:59.723Z,101901.94
2018-04-17T09:48:25.578Z,101893.91
2018-04-17T09:50:51.415Z,101901.55
2018-04-17T09:53:17.271Z,101902.73
2018-04-17T09:55:43.156Z,101901.16
2018-04-17T09:58:09.009Z,101903.36
2018-04-17T10:00:40.846Z,101908.98
2018-04-17T10:03:06.708Z,101908.33
2018-04-17T10:05:32.538Z,101910.08
2018-04-17T10:07:58.379Z,101913.83
2018-04-17T10:10:24.209Z,101914.52
2018-04-17T10:12:50.061Z,101913.67
2018-04-17T10:15:15.902Z,101916.73
2018-04-17T10:17:43.369Z,101910.96
2018-04-17T10:20:09.198Z,101902.34
2018-04-17T10:22:35.107Z,101916.92
2018-04-17T10:25:00.935Z,101914.67
2018-04-17T10:27:26.802Z,101912.80
2018-04-17T10:29:52.675Z,101913.59
2018-04-17T10:32:18.544Z,101911.78
2018-04-17T10:34:44.409Z,101905.66
2018-04-17T10:37:10.243Z,101912.00
2018-04-17T10:39:36.086Z,101905.02
2018-04-17T10:42:01.939Z,101906.34
2018-04-17T10:44:27.931Z,101903.25
2018-04-17T10:46:53.769Z,101903.88
2018-04-17T10:49:19.633Z,101909.24
2018-04-17T10:51:45.491Z,101903.47
2018-04-17T10:54:11.341Z,101899.67
2018-04-17T10:56:37.189Z,101896.04
2018-04-17T10:59:03.060Z,101894.23
2018-04-17T11:01:28.928Z,101892.30
2018-04-17T11:03:54.766Z,101884.73
2018-04-17T11:06:20.730Z,101898.64
2018-04-17T11:08:46.575Z,101886.12
2018-04-17T11:11:12.427Z,101893.45
2018-04-17T11:13:38.291Z,101884.74
2018-04-17T11:16:04.168Z,101881.27
2018-04-17T11:18:29.988Z,101879.05
2018-04-17T11:20:55.810Z,101878.92
2018-04-17T11:23:21.691Z,101870.31
2018-04-17T11:25:47.534Z,101859.67
2018-04-17T11:28:13.412Z,101861.97
2018-04-17T11:30:39.238Z,101859.66
2018-04-17T11:33:05.110Z,101863.07
2018-04-17T11:35:30.971Z,101859.19
2018-04-17T11:37:56.840Z,101851.91
2018-04-17T11:40:22.697Z,101857.55
2018-04-17T11:42:48.574Z,101855.17
2018-04-17T11:45:14.412Z,101850.27
2018-04-17T11:47:40.271Z,101859.35
2018-04-17T11:50:06.128Z,101878.48
2018-04-17T11:52:31.987Z,101869.62
2018-04-17T11:54:57.851Z,101878.38
2018-04-17T11:57:23.692Z,101880.44
2018-04-17T11:59:49.563Z,101878.08
2018-04-17T12:02:15.423Z,101864.43
2018-04-17T12:04:41.261Z,101872.02
2018-04-17T12:07:07.136Z,101873.74
2018-04-17T12:09:47.949Z,101872.24
2018-04-17T12:12:13.832Z,101868.80
2018-04-17T12:14:39.748Z,101873.67
2018-04-17T12:17:05.545Z,101866.64
2018-04-17T12:19:31.399Z,101861.25
2018-04-17T12:21:57.263Z,101862.67
2018-04-17T12:24:23.097Z,101852.61
2018-04-17T12:26:48.949Z,101850.05
2018-04-17T12:29:14.777Z,101857.33
2018-04-17T12:31:40.661Z,101859.17
2018-04-17T12:34:06.503Z,101853.55
2018-04-17T12:36:32.340Z,101860.10
2018-04-17T12:38:58.174Z,101864.25
2018-04-17T12:41:24.023Z,101861.98
2018-04-17T12:43:49.893Z,101864.65
2018-04-17T12:46:15.761Z,101857.97
2018-04-17T12:48:41.659Z,101863.93
2018-04-17T12:51:07.495Z,101866.78
2018-04-17T12:53:33.355Z,101874.98
2018-04-17T12:55:59.211Z,101870.23
2018-04-17T12:58:25.056Z,101861.69
2018-04-17T13:00:50.895Z,101872.09
2018-04-17T13:03:16.739Z,101861.11
2018-04-17T13:05:44.239Z,101863.52
2018-04-17T13:08:10.094Z,101868.48
2018-04-17T13:10:35.976Z,101876.98
2018-04-17T13:13:01.823Z,101875.95
2018-04-17T13:15:27.702Z,101875.84
2018-04-17T13:17:53.535Z,101870.77
2018-04-17T13:20:19.433Z,101873.64
2018-04-17T13:22:45.299Z,101863.83
2018-04-17T13:25:11.146Z,101866.70
2018-04-17T13:27:37.006Z,101865.59
2018-04-17T13:30:02.903Z,101864.98
2018-04-17T13:32:28.741Z,101869.03
2018-04-17T13:34:54.599Z,101855.93
2018-04-17T13:37:20.460Z,101857.58
2018-04-17T13:39:46.311Z,101851.54
2018-04-17T13:42:12.151Z,101846.23
2018-04-17T13:44:38.018Z,101860.39
2018-04-17T13:47:03.874Z,101846.91
2018-04-17T13:49:29.716Z,101855.23
2018-04-17T13:51:55.588Z,101854.59
2018-04-17T13:54:21.433Z,101852.62
2018-04-17T13:56:47.310Z,101843.84
2018-04-17T13:59:13.179Z,101846.59
2018-04-17T14:01:39.028Z,101851.97
2018-04-17T14:04:04.889Z,101845.23
2018-04-17T14:06:30.772Z,101850.82
2018-04-17T14:08:56.658Z,101849.37
2018-04-17T14:11:22.506Z,101849.96
2018-04-17T14:13:48.376Z,101845.28
2018-04-17T14:16:14.231Z,101839.73
2018-04-17T14:18:40.077Z,101838.77
2018-04-17T14:21:05.927Z,101838.74
2018-04-17T14:23:31.785Z,101843.91
2018-04-17T14:25:57.655Z,101843.63
2018-04-17T14:28:23.514Z,101844.37
2018-04-17T14:30:49.372Z,101839.30
2018-04-17T14:33:15.215Z,101846.41
2018-04-17T14:35:41.066Z,101840.44
2018-04-17T14:38:06.917Z,101833.63
2018-04-17T14:40:32.786Z,101840.27
2018-04-17T14:42:58.656Z,101836.41
2018-04-17T14:45:24.530Z,101835.47
2018-04-17T14:47:50.399Z,101829.86
2018-04-17T14:50:16.258Z,101839.63
2018-04-17T14:52:42.101Z,101831.98
2018-04-17T14:55:07.962Z,101832.38
2018-04-17T14:57:33.814Z,101833.52
2018-04-17T14:59:59.659Z,101831.38
2018-04-17T15:02:25.523Z,101832.48
2018-04-17T15:04:51.360Z,101833.97
2018-04-17T15:07:17.218Z,101834.92
2018-04-17T15:09:43.088Z,101842.24
2018-04-17T15:12:08.945Z,101838.66
2018-04-17T15:14:34.782Z,101830.72
2018-04-17T15:17:00.648Z,101836.07
2018-04-17T15:19:26.516Z,101843.13
2018-04-17T15:21:52.384Z,101844.86
2018-04-17T15:24:18.239Z,101846.14
2018-04-17T15:26:44.089Z,101844.88
2018-04-17T15:29:09.977Z,101848.57
2018-04-17T15:31:35.829Z,101851.60
2018-04-17T15:34:01.698Z,101852.97
2018-04-17T15:36:27.555Z,101854.14
2018-04-17T15:38:53.411Z,101852.29
2018-04-17T15:41:19.271Z,101853.87
2018-04-17T15:43:45.125Z,101852.44
2018-04-17T15:46:10.969Z,101854.48
2018-04-17T15:48:36.855Z,101857.71
2018-04-17T15:51:02.714Z,101862.95
2018-04-17T15:56:21.538Z,101870.84
2018-04-17T15:58:47.911Z,101872.33
2018-04-17T16:01:13.769Z,101869.97
2018-04-17T16:03:39.629Z,101867.44
2018-04-17T16:06:05.496Z,101862.81
2018-04-17T16:08:31.400Z,101862.37
2018-04-17T16:10:57.237Z,101868.23
2018-04-17T16:13:23.072Z,101866.75
2018-04-17T16:15:48.930Z,101863.36
2018-04-17T16:18:14.780Z,101862.12
2018-04-17T16:20:40.637Z,101871.25
2018-04-17T16:23:06.496Z,101857.92
2018-04-17T16:25:32.322Z,101863.69
2018-04-17T16:27:58.186Z,101869.19
2018-04-17T16:30:24.046Z,101870.41
2018-04-17T16:32:49.893Z,101867.80
2018-04-17T16:35:15.745Z,101865.30
2018-04-17T16:37:41.624Z,101871.58
2018-04-17T16:40:07.483Z,101865.56
2018-04-17T16:42:33.367Z,101860.28
2018-04-17T16:44:59.250Z,101856.75
2018-04-17T16:47:25.109Z,101851.48
2018-04-17T16:49:50.986Z,101845.66
2018-04-17T16:52:18.783Z,101840.90
2018-04-17T16:54:44.656Z,101840.04
2018-04-17T16:57:10.493Z,101847.29
2018-04-17T16:59:36.352Z,101853.78
2018-04-17T17:02:02.194Z,101849.72
2018-04-17T17:04:28.055Z,101853.83
2018-04-17T17:06:53.949Z,101864.31
2018-04-17T17:09:19.803Z,101861.41
2018-04-17T17:11:45.676Z,101865.17
2018-04-17T17:14:11.542Z,101864.45
2018-04-17T17:16:37.377Z,101867.05
2018-04-17T17:19:03.251Z,101872.56
2018-04-17T17:21:29.130Z,101884.78
2018-04-17T17:23:54.985Z,101888.31
2018-04-17T17:26:20.901Z,101884.17
2018-04-17T17:28:46.776Z,101883.79
2018-04-17T17:31:12.681Z,101889.12
2018-04-17T17:33:38.614Z,101886.72
2018-04-17T17:36:04.538Z,101898.47
2018-04-17T17:38:30.468Z,101901.11
2018-04-17T17:40:56.320Z,101906.64
2018-04-17T17:43:22.209Z,101919.88
2018-04-17T17:45:48.070Z,101918.08
2018-04-17T17:48:13.991Z,101936.33
2018-04-17T17:50:39.874Z,101934.34
2018-04-17T17:53:05.757Z,101934.34
2018-04-17T17:55:31.632Z,101940.54
2018-04-17T17:57:57.564Z,101937.55
2018-04-17T18:00:23.433Z,101940.86
2018-04-17T18:02:49.350Z,101946.31
2018-04-17T18:05:15.252Z,101943.45
2018-04-17T18:07:41.119Z,101949.48
2018-04-17T18:10:06.987Z,101953.55
2018-04-17T18:12:32.969Z,101949.61
2018-04-17T18:14:59.785Z,101958.98
2018-04-17T18:17:25.679Z,101963.29
2018-04-17T18:19:51.625Z,101968.80
2018-04-17T18:22:17.571Z,101982.77
2018-04-17T18:24:43.473Z,101983.81
2018-04-17T18:27:09.329Z,101992.69
2018-04-17T18:29:35.185Z,101989.79
2018-04-17T18:32:01.163Z,101985.05
2018-04-17T18:34:27.858Z,101988.63
2018-04-17T18:36:53.786Z,101984.28
2018-04-17T18:39:19.717Z,101991.24
2018-04-17T18:41:45.613Z,101996.95
2018-04-17T18:44:11.538Z,101995.59
2018-04-17T18:46:37.387Z,102004.59
2018-04-17T18:49:04.178Z,101999.89
2018-04-17T18:51:30.162Z,101999.12
2018-04-17T18:53:56.001Z,102002.45
2018-04-17T18:56:21.872Z,102005.88
2018-04-17T18:58:47.751Z,102016.27
2018-04-17T19:01:13.819Z,102019.86
2018-04-17T19:03:39.742Z,102027.13
2018-04-17T19:06:05.665Z,102029.56
2018-04-17T19:08:31.633Z,102027.13
2018-04-17T19:10:57.538Z,102031.16
2018-04-17T19:13:23.484Z,102030.47
2018-04-17T19:15:49.350Z,102026.66
2018-04-17T19:18:15.285Z,102031.73
2018-04-17T19:20:41.247Z,102031.52
2018-04-17T19:23:08.104Z,102036.80
2018-04-17T19:25:34.063Z,102041.20
2018-04-17T19:28:00.004Z,102047.67
2018-04-17T19:33:18.888Z,102055.52
2018-04-17T19:35:44.911Z,102053.91
2018-04-17T19:38:11.824Z,102057.11
2018-04-17T19:40:37.692Z,102064.27
2018-04-17T19:43:03.700Z,102058.05
2018-04-17T19:45:29.693Z,102060.42
2018-04-17T19:47:55.559Z,102065.23
2018-04-17T19:50:21.479Z,102065.32
2018-04-17T19:52:47.406Z,102073.95
2018-04-17T19:55:13.307Z,102068.08
2018-04-17T19:57:39.248Z,102064.09
2018-04-17T20:00:05.123Z,102073.86
2018-04-17T20:02:31.374Z,102068.60
2018-04-17T20:04:57.428Z,102066.43
2018-04-17T20:07:23.340Z,102072.12
2018-04-17T20:09:49.312Z,102066.43
2018-04-17T20:12:15.179Z,102069.45
2018-04-17T20:14:41.078Z,102077.52
2018-04-17T20:17:06.930Z,102066.73
2018-04-17T20:19:32.801Z,102071.19
2018-04-17T20:21:58.758Z,102069.28
2018-04-17T20:24:24.705Z,102061.83
2018-04-17T20:26:50.623Z,102064.65
2018-04-17T20:29:16.601Z,102062.16
2018-04-17T20:31:42.505Z,102060.87
2018-04-17T20:34:08.407Z,102066.33
2018-04-17T20:36:34.282Z,102071.20
2018-04-17T20:39:00.123Z,102069.44
2018-04-17T20:41:26.660Z,102079.30
2018-04-17T20:43:53.559Z,102084.09
2018-04-17T20:46:19.491Z,102084.25
2018-04-17T20:48:45.391Z,102082.17
2018-04-17T20:51:11.326Z,102086.33
2018-04-17T20:53:37.239Z,102081.46
2018-04-17T20:56:03.150Z,102081.97
2018-04-17T20:58:29.018Z,102085.48
2018-04-17T21:00:54.866Z,102089.48
2018-04-17T21:03:20.818Z,102095.28
2018-04-17T21:05:46.729Z,102089.13
2018-04-17T21:08:12.608Z,102093.59
2018-04-17T21:10:38.533Z,102087.10
2018-04-17T21:13:04.486Z,102088.49
2018-04-17T21:15:30.360Z,102091.67
2018-04-17T21:17:56.234Z,102095.77
2018-04-17T21:20:22.111Z,102090.12
2018-04-17T21:22:47.991Z,102091.91
2018-04-17T21:25:13.866Z,102088.88
2018-04-17T21:27:39.732Z,102093.73
2018-04-17T21:30:05.584Z,102097.73
2018-04-17T21:32:31.444Z,102092.06
2018-04-17T21:34:57.313Z,102095.66
2018-04-17T21:37:23.155Z,102096.58
2018-04-17T21:39:49.032Z,102098.78
2018-04-17T21:42:14.890Z,102102.80
2018-04-17T21:44:40.755Z,102107.17
2018-04-17T21:47:06.610Z,102105.02
2018-04-17T21:49:32.488Z,102112.11
2018-04-17T21:51:58.352Z,102106.91
2018-04-17T21:54:24.205Z,102110.05
2018-04-17T21:56:50.050Z,102110.98
2018-04-17T21:59:15.925Z,102105.79
2018-04-17T22:01:41.794Z,102113.65
2018-04-17T22:04:07.652Z,102107.94
2018-04-17T22:06:33.472Z,102111.09
2018-04-17T22:08:59.331Z,102109.84
2018-04-17T22:11:25.193Z,102116.36
2018-04-17T22:13:51.082Z,102119.88
2018-04-17T22:16:16.934Z,102118.11
2018-04-17T22:18:42.812Z,102123.48
2018-04-17T22:21:08.706Z,102132.33
2018-04-17T22:23:34.567Z,102126.62
2018-04-17T22:26:00.464Z,102132.31
2018-04-17T22:28:26.307Z,102124.42
2018-04-17T22:30:52.162Z,102122.25
2018-04-17T22:33:17.996Z,102130.14
2018-04-17T22:35:43.840Z,102123.59
2018-04-17T22:38:09.715Z,102123.14
2018-04-17T22:40:35.594Z,102118.41
2018-04-17T22:43:01.500Z,102124.11
2018-04-17T22:45:27.361Z,102130.69
2018-04-17T22:47:53.233Z,102125.50
2018-04-17T22:50:19.108Z,102126.37
2018-04-17T22:52:44.989Z,102125.00
2018-04-17T22:55:10.852Z,102125.86
2018-04-17T22:57:36.757Z,102132.44
2018-04-17T23:00:02.657Z,102131.46
2018-04-17T23:02:28.489Z,102127.07
2018-04-17T23:04:54.333Z,102131.53
2018-04-17T23:07:20.179Z,102132.94
2018-04-17T23:09:46.034Z,102133.32
2018-04-17T23:12:11.884Z,102135.94
2018-04-17T23:14:37.744Z,102142.10
2018-04-17T23:17:03.578Z,102139.06
2018-04-17T23:19:29.430Z,102136.89
2018-04-17T23:21:55.272Z,102139.52
2018-04-17T23:24:21.125Z,102138.28
2018-04-17T23:26:46.987Z,102135.70
2018-04-17T23:29:12.834Z,102139.19
2018-04-17T23:31:38.692Z,102137.05
2018-04-17T23:34:04.556Z,102141.06
2018-04-17T23:36:30.415Z,102137.84
2018-04-17T23:38:56.263Z,102134.45
2018-04-17T23:41:22.115Z,102145.92
2018-04-17T23:43:47.962Z,102147.28
2018-04-17T23:46:13.843Z,102142.05
2018-04-17T23:48:39.695Z,102147.31
2018-04-17T23:51:05.530Z,102151.73
2018-04-17T23:53:31.402Z,102159.08
2018-04-17T23:55:57.272Z,102154.37
2018-04-17T23:58:23.116Z,102160.53
